createdAt,value
2022-08-28T00:00:14.147Z,50.61
2022-08-28T00:02:43.808Z,51.01
2022-08-28T00:05:12.442Z,51.99
2022-08-28T00:07:43.232Z,52.06
2022-08-28T00:10:16.876Z,51.61
2022-08-28T00:12:44.913Z,51.12
2022-08-28T00:15:14.871Z,50.98
2022-08-28T00:17:43.859Z,51.16
2022-08-28T00:20:13.648Z,50.97
2022-08-28T00:22:42.099Z,51.47
2022-08-28T00:25:13.660Z,51.49
2022-08-28T00:27:52.458Z,51.28
2022-08-28T00:30:21.519Z,51.51
2022-08-28T00:32:50.620Z,51.85
2022-08-28T00:35:18.718Z,52.44
2022-08-28T00:37:48.233Z,51.61
2022-08-28T00:40:18.577Z,51.60
2022-08-28T00:42:57.308Z,51.94
2022-08-28T00:45:26.595Z,51.25
2022-08-28T00:47:55.522Z,52.19
2022-08-28T00:50:26.652Z,51.88
2022-08-28T00:52:59.800Z,51.74
2022-08-28T00:55:29.155Z,52.00
2022-08-28T00:58:00.339Z,51.98
2022-08-28T01:00:32.025Z,52.81
2022-08-28T01:03:01.582Z,53.35
2022-08-28T01:05:30.006Z,52.51
2022-08-28T01:07:59.608Z,53.44
2022-08-28T01:10:29.986Z,52.48
2022-08-28T01:12:58.946Z,53.35
2022-08-28T01:15:29.802Z,53.34
2022-08-28T01:18:07.910Z,53.58
2022-08-28T01:20:40.671Z,53.58
2022-08-28T01:23:13.932Z,53.56
2022-08-28T01:25:43.472Z,53.19
2022-08-28T01:28:14.213Z,53.74
2022-08-28T01:30:44.399Z,53.73
2022-08-28T01:33:14.402Z,54.27
2022-08-28T01:35:44.802Z,53.72
2022-08-28T01:38:12.903Z,53.85
2022-08-28T01:40:54.480Z,54.59
2022-08-28T01:43:23.505Z,53.60
2022-08-28T01:45:53.748Z,54.16
2022-08-28T01:48:23.453Z,54.38
2022-08-28T01:50:52.298Z,54.59
2022-08-28T01:53:24.819Z,54.06
2022-08-28T01:55:56.149Z,54.51
2022-08-28T01:58:25.260Z,54.67
2022-08-28T02:00:55.853Z,53.82
2022-08-28T02:03:24.486Z,54.91
2022-08-28T02:05:52.997Z,55.30
2022-08-28T02:08:21.302Z,55.00
2022-08-28T02:10:50.026Z,54.82
2022-08-28T02:13:19.018Z,55.27
2022-08-28T02:15:47.499Z,55.07
2022-08-28T02:18:15.536Z,55.26
2022-08-28T02:20:43.201Z,55.02
2022-08-28T02:23:11.109Z,55.35
2022-08-28T02:25:39.406Z,55.68
2022-08-28T02:28:06.968Z,55.79
2022-08-28T02:30:36.496Z,55.66
2022-08-28T02:33:04.504Z,56.80
2022-08-28T02:35:32.198Z,56.19
2022-08-28T02:38:01.056Z,56.44
2022-08-28T02:40:29.605Z,56.06
2022-08-28T02:42:57.241Z,56.69
2022-08-28T02:45:24.835Z,57.19
2022-08-28T02:47:56.725Z,56.84
2022-08-28T02:50:25.173Z,57.34
2022-08-28T02:52:54.346Z,57.07
2022-08-28T02:55:22.636Z,57.10
2022-08-28T02:57:50.604Z,56.62
2022-08-28T03:00:22.131Z,57.47
2022-08-28T03:02:50.526Z,58.00
2022-08-28T03:05:22.328Z,57.77
2022-08-28T03:07:52.554Z,57.40
2022-08-28T03:10:21.709Z,57.77
2022-08-28T03:12:49.438Z,57.63
2022-08-28T03:15:17.977Z,57.67
2022-08-28T03:17:46.187Z,58.18
2022-08-28T03:20:17.219Z,57.70
2022-08-28T03:23:03.833Z,57.85
2022-08-28T03:25:31.401Z,57.65
2022-08-28T03:27:58.940Z,57.67
2022-08-28T03:30:27.168Z,57.64
2022-08-28T03:32:54.873Z,57.84
2022-08-28T03:35:22.456Z,57.80
2022-08-28T03:37:51.666Z,57.39
2022-08-28T03:40:19.772Z,57.62
2022-08-28T03:42:53.073Z,57.44
2022-08-28T03:45:21.945Z,57.79
2022-08-28T03:47:49.613Z,58.17
2022-08-28T03:50:19.733Z,57.85
2022-08-28T03:52:47.661Z,57.68
2022-08-28T03:55:19.572Z,57.99
2022-08-28T03:57:47.169Z,57.98
2022-08-28T04:00:16.308Z,57.68
2022-08-28T04:02:46.252Z,57.77
2022-08-28T04:05:14.269Z,58.18
2022-08-28T04:07:41.834Z,57.88
2022-08-28T04:10:10.161Z,57.64
2022-08-28T04:12:39.156Z,57.69
2022-08-28T04:15:08.484Z,57.02
2022-08-28T04:17:38.448Z,56.84
2022-08-28T04:20:07.171Z,56.82
2022-08-28T04:22:35.130Z,57.09
2022-08-28T04:25:02.805Z,56.44
2022-08-28T04:27:30.351Z,57.25
2022-08-28T04:29:59.337Z,57.22
2022-08-28T04:32:27.147Z,57.87
2022-08-28T04:34:54.713Z,57.93
2022-08-28T04:37:22.814Z,56.96
2022-08-28T04:39:55.876Z,56.88
2022-08-28T04:42:23.507Z,56.83
2022-08-28T04:44:51.238Z,56.94
2022-08-28T04:47:23.242Z,56.97
2022-08-28T04:49:50.886Z,57.26
2022-08-28T04:52:18.541Z,56.20
2022-08-28T04:54:46.140Z,56.43
2022-08-28T04:57:13.669Z,55.95
2022-08-28T04:59:41.938Z,56.11
2022-08-28T05:02:09.596Z,56.70
2022-08-28T05:04:38.550Z,56.58
2022-08-28T05:07:06.281Z,56.63
2022-08-28T05:09:34.851Z,56.42
2022-08-28T05:12:04.508Z,56.25
2022-08-28T05:14:32.674Z,56.53
2022-08-28T05:17:00.277Z,56.90
2022-08-28T05:19:28.930Z,57.73
2022-08-28T05:21:57.866Z,56.84
2022-08-28T05:24:25.431Z,56.91
2022-08-28T05:26:53.001Z,57.38
2022-08-28T05:29:20.917Z,56.58
2022-08-28T05:31:51.105Z,57.01
2022-08-28T05:34:18.714Z,57.23
2022-08-28T05:36:46.271Z,57.39
2022-08-28T05:39:15.549Z,56.99
2022-08-28T05:41:45.591Z,57.39
2022-08-28T05:44:15.062Z,57.59
2022-08-28T05:46:46.765Z,58.32
2022-08-28T05:49:14.653Z,57.84
2022-08-28T05:51:43.829Z,57.97
2022-08-28T05:54:12.229Z,57.47
2022-08-28T05:56:42.033Z,57.82
2022-08-28T05:59:11.351Z,58.20
2022-08-28T06:01:40.892Z,57.31
2022-08-28T06:04:10.568Z,58.24
2022-08-28T06:06:41.048Z,58.29
2022-08-28T06:09:10.951Z,58.44
2022-08-28T06:11:42.180Z,58.26
2022-08-28T06:14:18.056Z,58.43
2022-08-28T06:16:48.215Z,58.68
2022-08-28T06:19:17.477Z,58.04
2022-08-28T06:21:46.733Z,58.69
2022-08-28T06:24:14.863Z,58.64
2022-08-28T06:26:42.743Z,58.84
2022-08-28T06:29:13.342Z,57.86
2022-08-28T06:31:42.448Z,56.69
2022-08-28T06:34:10.856Z,57.51
2022-08-28T06:36:41.618Z,56.68
2022-08-28T06:39:11.349Z,56.47
2022-08-28T06:41:42.820Z,56.02
2022-08-28T06:44:12.387Z,55.76
2022-08-28T06:46:42.579Z,56.19
2022-08-28T06:49:10.427Z,55.68
2022-08-28T06:51:38.337Z,56.08
2022-08-28T06:54:06.747Z,55.81
2022-08-28T06:56:34.716Z,55.47
2022-08-28T06:59:03.227Z,55.14
2022-08-28T07:01:32.976Z,54.65
2022-08-28T07:04:04.379Z,55.00
2022-08-28T07:06:34.243Z,55.48
2022-08-28T07:09:02.263Z,55.33
2022-08-28T07:11:32.309Z,54.77
2022-08-28T07:14:00.488Z,55.64
2022-08-28T07:16:29.838Z,54.81
2022-08-28T07:18:58.055Z,54.66
2022-08-28T07:21:27.379Z,54.61
2022-08-28T07:23:56.161Z,53.66
2022-08-28T07:26:26.109Z,53.37
2022-08-28T07:29:09.357Z,53.63
2022-08-28T07:31:40.640Z,53.06
2022-08-28T07:34:09.420Z,53.15
2022-08-28T07:36:39.266Z,52.85
2022-08-28T07:39:08.441Z,52.71
2022-08-28T07:41:39.116Z,52.51
2022-08-28T07:44:25.076Z,52.38
2022-08-28T07:46:54.647Z,53.43
2022-08-28T07:49:22.686Z,52.59
2022-08-28T07:51:53.845Z,52.63
2022-08-28T07:54:22.516Z,52.05
2022-08-28T07:56:50.127Z,51.54
2022-08-28T07:59:19.415Z,50.83
2022-08-28T08:01:50.542Z,50.44
2022-08-28T08:04:20.249Z,50.99
2022-08-28T08:06:48.198Z,51.23
2022-08-28T08:09:19.625Z,50.83
2022-08-28T08:11:49.162Z,50.48
2022-08-28T08:14:18.077Z,51.04
2022-08-28T08:16:47.339Z,51.58
2022-08-28T08:19:16.315Z,50.47
2022-08-28T08:21:45.637Z,50.43
2022-08-28T08:24:17.964Z,50.17
2022-08-28T08:26:58.837Z,50.03
2022-08-28T08:29:29.005Z,49.35
2022-08-28T08:31:58.011Z,49.29
2022-08-28T08:34:25.834Z,49.23
2022-08-28T08:36:54.123Z,48.72
2022-08-28T08:39:21.787Z,49.68
2022-08-28T08:41:54.625Z,48.75
2022-08-28T08:44:33.364Z,49.10
2022-08-28T08:47:14.152Z,49.28
2022-08-28T08:49:48.544Z,47.97
2022-08-28T08:52:32.148Z,47.55
2022-08-28T08:55:18.108Z,47.96
2022-08-28T08:57:49.623Z,47.15
2022-08-28T09:00:18.908Z,47.81
2022-08-28T09:02:54.783Z,46.98
2022-08-28T09:05:27.428Z,47.16
2022-08-28T09:07:58.198Z,46.72
2022-08-28T09:10:29.673Z,46.26
2022-08-28T09:13:04.857Z,46.37
2022-08-28T09:15:35.682Z,46.71
2022-08-28T09:18:11.654Z,45.61
2022-08-28T09:20:39.454Z,46.04
2022-08-28T09:23:12.415Z,45.54
2022-08-28T09:25:51.564Z,44.70
2022-08-28T09:28:23.801Z,45.14
2022-08-28T09:30:59.001Z,45.18
2022-08-28T09:33:37.757Z,44.91
2022-08-28T09:36:29.853Z,45.50
2022-08-28T09:39:07.258Z,45.15
2022-08-28T09:41:56.508Z,43.96
2022-08-28T09:44:25.786Z,43.42
2022-08-28T09:46:53.506Z,44.09
2022-08-28T09:49:27.698Z,43.96
2022-08-28T09:51:56.190Z,44.03
2022-08-28T09:54:31.060Z,43.66
2022-08-28T09:56:58.821Z,44.22
2022-08-28T09:59:29.849Z,44.08
2022-08-28T10:02:16.439Z,43.53
2022-08-28T10:04:58.791Z,43.64
2022-08-28T10:07:34.767Z,44.15
2022-08-28T10:10:17.089Z,44.16
2022-08-28T10:12:58.322Z,45.44
2022-08-28T10:15:33.744Z,44.91
2022-08-28T10:18:20.958Z,44.41
2022-08-28T10:20:58.794Z,44.26
2022-08-28T10:23:36.381Z,44.16
2022-08-28T10:26:21.134Z,44.72
2022-08-28T10:28:59.542Z,43.94
2022-08-28T10:31:37.241Z,42.99
2022-08-28T10:34:17.690Z,43.80
2022-08-28T10:36:52.115Z,43.42
2022-08-28T10:39:35.296Z,42.44
2022-08-28T10:42:06.028Z,41.88
2022-08-28T10:44:45.029Z,41.98
2022-08-28T10:47:15.777Z,41.78
2022-08-28T10:49:48.226Z,41.76
2022-08-28T10:52:20.846Z,42.07
2022-08-28T10:54:54.069Z,40.91
2022-08-28T10:57:37.293Z,41.15
2022-08-28T11:00:11.848Z,40.96
2022-08-28T11:02:43.552Z,40.50
2022-08-28T11:05:11.700Z,40.71
2022-08-28T11:07:45.569Z,40.11
2022-08-28T11:10:23.462Z,40.51
2022-08-28T11:12:53.123Z,39.72
2022-08-28T11:15:43.110Z,40.07
2022-08-28T11:18:39.623Z,39.37
2022-08-28T11:21:14.849Z,39.10
2022-08-28T11:23:48.746Z,40.06
2022-08-28T11:26:30.578Z,40.20
2022-08-28T11:28:59.989Z,39.61
2022-08-28T11:31:40.870Z,38.30
2022-08-28T11:34:48.661Z,37.90
2022-08-28T11:37:40.404Z,38.74
2022-08-28T11:40:18.224Z,37.66
2022-08-28T11:42:48.728Z,38.89
2022-08-28T11:45:21.865Z,37.41
2022-08-28T11:47:56.082Z,38.41
2022-08-28T11:50:28.909Z,36.92
2022-08-28T11:53:20.410Z,37.68
2022-08-28T11:56:05.090Z,37.54
2022-08-28T11:58:42.457Z,37.35
2022-08-28T12:01:14.114Z,37.07
2022-08-28T12:03:45.901Z,36.91
2022-08-28T12:06:14.853Z,37.08
2022-08-28T12:09:12.715Z,36.76
2022-08-28T12:12:03.969Z,36.75
2022-08-28T12:15:09.393Z,37.06
2022-08-28T12:17:57.108Z,36.19
2022-08-28T12:20:45.159Z,36.73
2022-08-28T12:23:39.486Z,36.04
2022-08-28T12:26:11.161Z,36.44
2022-08-28T12:28:45.727Z,36.77
2022-08-28T12:31:43.005Z,36.26
2022-08-28T12:34:18.141Z,36.89
2022-08-28T12:36:48.965Z,36.55
2022-08-28T12:39:20.909Z,36.94
2022-08-28T12:41:48.549Z,36.51
2022-08-28T12:44:16.395Z,35.62
2022-08-28T12:46:44.817Z,35.57
2022-08-28T12:49:31.986Z,36.58
2022-08-28T12:52:16.716Z,36.01
2022-08-28T12:54:47.828Z,35.49
2022-08-28T12:57:17.470Z,35.40
2022-08-28T12:59:46.966Z,35.21
2022-08-28T13:02:25.716Z,36.09
2022-08-28T13:04:56.682Z,34.74
2022-08-28T13:07:30.158Z,34.61
2022-08-28T13:10:03.370Z,34.54
2022-08-28T13:12:54.546Z,34.48
2022-08-28T13:15:46.302Z,34.55
2022-08-28T13:18:35.817Z,34.94
2022-08-28T13:21:33.850Z,33.11
2022-08-28T13:24:40.855Z,34.08
2022-08-28T13:27:19.821Z,33.98
2022-08-28T13:30:01.173Z,34.07
2022-08-28T13:32:30.247Z,34.31
2022-08-28T13:35:13.492Z,33.26
2022-08-28T13:37:43.580Z,33.84
2022-08-28T13:40:30.220Z,34.19
2022-08-28T13:43:06.803Z,33.97
2022-08-28T13:45:42.616Z,33.20
2022-08-28T13:48:12.167Z,33.24
2022-08-28T13:50:42.226Z,32.54
2022-08-28T13:53:13.138Z,32.22
2022-08-28T13:55:40.854Z,33.07
2022-08-28T13:58:10.630Z,32.81
2022-08-28T14:00:42.000Z,33.12
2022-08-28T14:03:26.990Z,32.97
2022-08-28T14:05:54.651Z,32.40
2022-08-28T14:08:22.677Z,32.66
2022-08-28T14:10:50.482Z,32.61
2022-08-28T14:13:19.786Z,32.55
2022-08-28T14:15:47.658Z,32.96
2022-08-28T14:18:15.325Z,33.11
2022-08-28T14:20:42.870Z,32.61
2022-08-28T14:23:11.462Z,31.25
2022-08-28T14:25:42.280Z,31.17
2022-08-28T14:28:09.869Z,31.97
2022-08-28T14:30:43.756Z,32.44
2022-08-28T14:33:11.375Z,31.82
2022-08-28T14:35:40.755Z,32.89
2022-08-28T14:38:11.461Z,32.08
2022-08-28T14:40:40.325Z,31.18
2022-08-28T14:43:09.701Z,31.26
2022-08-28T14:45:45.017Z,31.30
2022-08-28T14:48:12.855Z,32.35
2022-08-28T14:50:41.804Z,32.29
2022-08-28T14:53:09.996Z,31.99
2022-08-28T14:55:41.707Z,32.19
2022-08-28T14:58:09.266Z,31.91
2022-08-28T15:00:40.525Z,31.50
2022-08-28T15:03:10.320Z,31.62
2022-08-28T15:05:37.903Z,32.35
2022-08-28T15:08:08.279Z,31.22
2022-08-28T15:10:37.969Z,32.06
2022-08-28T15:13:05.586Z,31.83
2022-08-28T15:15:35.425Z,32.15
2022-08-28T15:18:02.988Z,32.04
2022-08-28T15:20:32.647Z,31.54
2022-08-28T15:23:00.217Z,32.08
2022-08-28T15:25:28.027Z,31.81
2022-08-28T15:27:55.851Z,31.67
2022-08-28T15:30:23.402Z,32.29
2022-08-28T15:32:50.984Z,31.80
2022-08-28T15:35:18.582Z,32.45
2022-08-28T15:37:47.703Z,32.12
2022-08-28T15:40:32.699Z,32.75
2022-08-28T15:43:00.291Z,32.14
2022-08-28T15:45:28.077Z,32.16
2022-08-28T15:47:55.725Z,32.00
2022-08-28T15:50:23.474Z,31.98
2022-08-28T15:52:54.633Z,32.61
2022-08-28T15:55:22.200Z,32.27
2022-08-28T15:57:49.952Z,32.23
2022-08-28T16:00:18.064Z,32.69
2022-08-28T16:02:45.628Z,32.42
2022-08-28T16:05:13.357Z,32.74
2022-08-28T16:07:40.923Z,32.49
2022-08-28T16:10:13.321Z,32.66
2022-08-28T16:12:41.111Z,33.04
2022-08-28T16:15:10.342Z,33.18
2022-08-28T16:17:38.793Z,32.38
2022-08-28T16:20:12.901Z,33.52
2022-08-28T16:22:40.864Z,33.12
2022-08-28T16:25:10.903Z,32.77
2022-08-28T16:27:38.443Z,32.75
2022-08-28T16:30:15.838Z,32.96
2022-08-28T16:32:46.620Z,32.92
2022-08-28T16:35:14.954Z,33.66
2022-08-28T16:37:43.040Z,33.85
2022-08-28T16:40:13.197Z,33.64
2022-08-28T16:42:51.441Z,33.76
2022-08-28T16:45:19.768Z,33.13
2022-08-28T16:47:47.363Z,34.08
2022-08-28T16:50:15.593Z,33.83
2022-08-28T16:52:43.321Z,33.99
2022-08-28T16:55:13.544Z,34.04
2022-08-28T16:57:41.134Z,34.20
2022-08-28T17:00:12.438Z,33.96
2022-08-28T17:02:41.376Z,34.00
2022-08-28T17:05:10.074Z,34.34
2022-08-28T17:07:39.625Z,34.26
2022-08-28T17:10:09.307Z,33.97
2022-08-28T17:12:38.302Z,34.18
2022-08-28T17:15:07.277Z,34.46
2022-08-28T17:17:35.511Z,34.16
2022-08-28T17:20:04.862Z,34.72
2022-08-28T17:22:31.960Z,34.67
2022-08-28T17:25:01.294Z,34.97
2022-08-28T17:27:29.864Z,35.01
2022-08-28T17:29:58.864Z,35.39
2022-08-28T17:32:28.810Z,34.67
2022-08-28T17:34:56.409Z,34.93
2022-08-28T17:37:24.803Z,34.65
2022-08-28T17:39:53.398Z,35.00
2022-08-28T17:42:21.539Z,34.67
2022-08-28T17:44:49.079Z,35.22
2022-08-28T17:47:18.317Z,35.10
2022-08-28T17:49:53.728Z,35.21
2022-08-28T17:52:21.294Z,35.26
2022-08-28T17:54:48.881Z,35.27
2022-08-28T17:57:16.669Z,35.35
2022-08-28T17:59:44.345Z,35.38
2022-08-28T18:02:16.431Z,35.42
2022-08-28T18:04:45.688Z,35.66
2022-08-28T18:07:13.369Z,36.02
2022-08-28T18:09:40.961Z,36.26
2022-08-28T18:12:12.288Z,36.49
2022-08-28T18:14:40.614Z,36.61
2022-08-28T18:17:09.242Z,36.70
2022-08-28T18:19:37.043Z,36.64
2022-08-28T18:22:09.018Z,36.14
2022-08-28T18:24:36.816Z,36.56
2022-08-28T18:27:05.237Z,36.76
2022-08-28T18:29:32.809Z,37.12
2022-08-28T18:32:01.669Z,37.10
2022-08-28T18:34:31.537Z,37.50
2022-08-28T18:36:59.401Z,37.12
2022-08-28T18:39:29.689Z,37.10
2022-08-28T18:41:58.265Z,38.55
2022-08-28T18:44:26.056Z,38.84
2022-08-28T18:46:53.809Z,39.72
2022-08-28T18:49:21.419Z,38.55
2022-08-28T18:51:48.990Z,39.16
2022-08-28T18:54:20.103Z,38.46
2022-08-28T18:56:50.323Z,38.40
2022-08-28T18:59:18.743Z,38.40
2022-08-28T19:01:46.507Z,38.95
2022-08-28T19:04:14.311Z,39.17
2022-08-28T19:06:42.499Z,39.54
2022-08-28T19:09:19.383Z,39.66
2022-08-28T19:11:49.805Z,40.09
2022-08-28T19:14:17.532Z,39.41
2022-08-28T19:16:45.267Z,40.09
2022-08-28T19:19:12.861Z,39.82
2022-08-28T19:21:40.551Z,38.99
2022-08-28T19:24:11.431Z,39.31
2022-08-28T19:26:39.402Z,38.83
2022-08-28T19:29:08.869Z,39.22
2022-08-28T19:31:38.612Z,39.68
2022-08-28T19:34:11.217Z,39.71
2022-08-28T19:36:39.957Z,39.94
2022-08-28T19:39:07.793Z,40.39
2022-08-28T19:41:36.789Z,40.69
2022-08-28T19:44:05.549Z,41.29
2022-08-28T19:46:36.519Z,40.05
2022-08-28T19:49:05.729Z,40.90
2022-08-28T19:51:33.944Z,41.42
2022-08-28T19:54:03.528Z,40.59
2022-08-28T19:56:32.980Z,40.79
2022-08-28T19:59:02.778Z,40.56
2022-08-28T20:01:37.624Z,41.37
2022-08-28T20:04:08.517Z,40.34
2022-08-28T20:06:37.277Z,40.55
2022-08-28T20:09:10.689Z,40.70
2022-08-28T20:11:40.197Z,40.85
2022-08-28T20:14:07.875Z,41.34
2022-08-28T20:16:38.354Z,42.16
2022-08-28T20:19:10.321Z,41.63
2022-08-28T20:21:40.372Z,41.74
2022-08-28T20:24:11.345Z,41.39
2022-08-28T20:26:38.939Z,41.36
2022-08-28T20:29:08.950Z,41.83
2022-08-28T20:31:40.303Z,42.60
2022-08-28T20:34:10.155Z,42.65
2022-08-28T20:36:38.198Z,42.99
2022-08-28T20:39:09.118Z,43.08
2022-08-28T20:41:37.935Z,43.21
2022-08-28T20:44:07.672Z,43.71
2022-08-28T20:46:40.080Z,43.60
2022-08-28T20:49:12.203Z,43.96
2022-08-28T20:51:55.137Z,43.76
2022-08-28T20:54:25.846Z,43.69
2022-08-28T20:56:54.059Z,44.14
2022-08-28T20:59:22.429Z,44.33
2022-08-28T21:01:50.965Z,44.74
2022-08-28T21:04:20.628Z,44.78
2022-08-28T21:06:48.647Z,45.35
2022-08-28T21:09:17.482Z,45.10
2022-08-28T21:11:45.477Z,45.37
2022-08-28T21:14:13.825Z,45.09
2022-08-28T21:16:41.922Z,44.65
2022-08-28T21:19:16.110Z,45.25
2022-08-28T21:21:46.395Z,46.11
2022-08-28T21:24:16.041Z,45.46
2022-08-28T21:26:44.635Z,45.89
2022-08-28T21:29:13.838Z,46.61
2022-08-28T21:31:42.877Z,46.45
2022-08-28T21:34:11.078Z,46.16
2022-08-28T21:36:39.491Z,46.63
2022-08-28T21:39:08.435Z,46.91
2022-08-28T21:41:36.625Z,46.69
2022-08-28T21:44:05.034Z,47.38
2022-08-28T21:46:33.070Z,47.00
2022-08-28T21:49:01.367Z,47.43
2022-08-28T21:51:28.929Z,47.74
2022-08-28T21:53:57.289Z,47.61
2022-08-28T21:56:28.834Z,48.29
2022-08-28T21:58:57.542Z,48.85
2022-08-28T22:01:26.612Z,48.59
2022-08-28T22:03:54.875Z,48.95
2022-08-28T22:06:23.996Z,49.40
2022-08-28T22:08:52.649Z,49.70
2022-08-28T22:11:25.228Z,49.86
2022-08-28T22:13:54.763Z,49.73
2022-08-28T22:16:23.201Z,49.55
2022-08-28T22:18:51.469Z,50.50
2022-08-28T22:21:39.790Z,50.93
2022-08-28T22:24:08.716Z,51.20
2022-08-28T22:26:36.552Z,51.06
2022-08-28T22:29:07.829Z,51.00
2022-08-28T22:31:36.761Z,51.37
2022-08-28T22:34:09.936Z,51.23
2022-08-28T22:36:38.378Z,51.76
2022-08-28T22:39:06.297Z,52.08
2022-08-28T22:41:37.164Z,51.79
2022-08-28T22:44:07.116Z,51.74
2022-08-28T22:46:35.839Z,52.77
2022-08-28T22:49:03.537Z,52.50
2022-08-28T22:51:31.154Z,53.01
2022-08-28T22:53:58.705Z,52.59
2022-08-28T22:56:26.450Z,53.38
2022-08-28T22:58:53.989Z,53.59
2022-08-28T23:01:25.936Z,53.37
2022-08-28T23:03:53.619Z,53.96
2022-08-28T23:06:21.434Z,53.23
2022-08-28T23:08:49.028Z,53.20
2022-08-28T23:11:16.918Z,53.74
2022-08-28T23:13:44.504Z,54.67
2022-08-28T23:16:12.948Z,54.26
2022-08-28T23:19:06.662Z,54.90
2022-08-28T23:21:29.697Z,55.39
2022-08-28T23:23:58.190Z,54.79
2022-08-28T23:26:26.023Z,54.82
2022-08-28T23:28:53.988Z,54.59
2022-08-28T23:31:21.740Z,54.47
2022-08-28T23:33:50.732Z,55.06
2022-08-28T23:36:19.427Z,55.27
2022-08-28T23:38:46.989Z,55.34
2022-08-28T23:41:14.554Z,55.73
2022-08-28T23:43:42.344Z,55.43
2022-08-28T23:46:13.538Z,55.09
2022-08-28T23:48:41.388Z,56.03
2022-08-28T23:51:11.047Z,55.18
2022-08-28T23:53:39.829Z,55.49
2022-08-28T23:56:07.695Z,55.32
2022-08-28T23:58:35.832Z,55.63
